createdAt,value
2023-01-08T00:00:24.790Z,61.05
2023-01-08T00:04:29.117Z,61.43
2023-01-08T00:08:33.053Z,61.20
2023-01-08T00:12:36.115Z,61.30
2023-01-08T00:16:39.198Z,60.73
2023-01-08T00:20:44.136Z,62.85
2023-01-08T00:24:47.181Z,62.20
2023-01-08T00:28:50.179Z,61.20
2023-01-08T00:32:53.142Z,60.70
2023-01-08T00:36:57.491Z,60.80
2023-01-08T00:41:00.487Z,61.80
2023-01-08T00:45:03.473Z,61.60
2023-01-08T00:49:06.440Z,61.10
2023-01-08T00:53:10.790Z,61.10
2023-01-08T00:57:13.827Z,59.95
2023-01-08T01:01:17.345Z,60.80
2023-01-08T01:05:20.817Z,60.85
2023-01-08T01:09:25.171Z,61.63
2023-01-08T01:13:28.191Z,61.20
2023-01-08T01:17:31.152Z,61.20
2023-01-08T01:21:34.601Z,61.45
2023-01-08T01:25:39.657Z,60.20
2023-01-08T01:29:42.731Z,60.75
2023-01-08T01:33:46.111Z,61.05
2023-01-08T01:37:49.068Z,61.45
2023-01-08T01:41:53.496Z,61.43
2023-01-08T01:45:56.528Z,61.30
2023-01-08T01:50:04.086Z,61.47
2023-01-08T01:54:10.427Z,60.93
2023-01-08T01:58:17.345Z,61.50
2023-01-08T02:02:22.804Z,61.00
2023-01-08T02:06:36.790Z,60.95
2023-01-08T02:10:49.469Z,61.80
2023-01-08T02:15:03.996Z,60.95
2023-01-08T02:19:21.142Z,60.45
2023-01-08T02:23:31.444Z,59.00
2023-01-08T02:27:39.022Z,61.90
2023-01-08T02:31:43.497Z,60.80
2023-01-08T02:35:52.867Z,59.40
2023-01-08T02:40:07.370Z,61.00
2023-01-08T02:44:18.754Z,60.90
2023-01-08T02:48:31.005Z,60.50
2023-01-08T02:52:37.750Z,60.90
2023-01-08T02:56:44.729Z,60.85
2023-01-08T03:00:49.949Z,61.90
2023-01-08T03:04:59.121Z,60.90
2023-01-08T03:09:02.656Z,60.83
2023-01-08T03:13:09.845Z,60.50
2023-01-08T03:17:20.677Z,60.90
2023-01-08T03:21:24.537Z,60.95
2023-01-08T03:25:30.932Z,60.85
2023-01-08T03:29:35.590Z,60.60
2023-01-08T03:33:40.300Z,60.90
2023-01-08T03:37:46.650Z,59.83
2023-01-08T03:41:50.568Z,60.95
2023-01-08T03:45:58.088Z,60.95
2023-01-08T03:50:06.612Z,60.35
2023-01-08T03:54:12.536Z,60.50
2023-01-08T03:58:15.497Z,61.40
2023-01-08T04:02:18.766Z,61.80
2023-01-08T04:06:23.248Z,61.15
2023-01-08T04:10:27.347Z,60.90
2023-01-08T04:14:30.324Z,61.00
2023-01-08T04:18:33.498Z,60.93
2023-01-08T04:22:37.806Z,60.50
2023-01-08T04:26:40.923Z,59.90
2023-01-08T04:30:43.949Z,61.40
2023-01-08T04:46:56.764Z,60.90
2023-01-08T04:51:00.350Z,61.60
2023-01-08T04:55:05.145Z,61.20
2023-01-08T04:59:08.160Z,61.10
2023-01-08T05:03:11.280Z,60.40
2023-01-08T05:07:14.373Z,60.10
2023-01-08T05:11:18.699Z,60.30
2023-01-08T05:15:21.724Z,60.20
2023-01-08T05:19:24.748Z,59.80
2023-01-08T05:23:27.756Z,60.00
2023-01-08T05:27:32.087Z,60.45
2023-01-08T05:31:35.055Z,59.85
2023-01-08T05:35:40.488Z,60.20
2023-01-08T05:39:43.477Z,59.70
2023-01-08T05:43:47.802Z,60.65
2023-01-08T05:47:50.954Z,61.07
2023-01-08T05:51:54.005Z,60.30
2023-01-08T05:56:00.710Z,59.90
2023-01-08T06:00:06.366Z,60.50
2023-01-08T06:04:09.717Z,60.60
2023-01-08T06:08:12.816Z,59.70
2023-01-08T06:12:15.795Z,60.20
2023-01-08T06:16:21.088Z,60.05
2023-01-08T06:20:24.150Z,60.00
2023-01-08T06:24:27.111Z,58.60
2023-01-08T06:28:30.088Z,60.30
2023-01-08T06:40:40.089Z,61.30
2023-01-08T06:44:43.029Z,60.90
2023-01-08T07:17:12.790Z,60.95
2023-01-08T07:21:17.363Z,61.07
2023-01-08T07:25:20.329Z,61.00
2023-01-08T07:29:23.355Z,61.00
2023-01-08T07:33:26.415Z,60.70
2023-01-08T07:37:30.830Z,59.30
2023-01-08T07:41:33.882Z,61.30
2023-01-08T07:45:36.947Z,60.60
2023-01-08T07:49:39.906Z,61.40
2023-01-08T07:53:44.366Z,60.80
2023-01-08T07:57:47.403Z,61.35
2023-01-08T08:01:50.509Z,60.93
2023-01-08T08:05:53.654Z,61.47
2023-01-08T08:09:57.982Z,61.77
2023-01-08T08:14:00.979Z,60.95
2023-01-08T08:18:04.276Z,60.70
2023-01-08T08:22:07.251Z,61.10
2023-01-08T08:26:11.580Z,60.75
2023-01-08T08:30:15.490Z,61.60
2023-01-08T08:34:20.377Z,61.10
2023-01-08T08:38:24.222Z,60.80
2023-01-08T08:42:28.685Z,61.30
2023-01-08T08:46:31.669Z,60.90
2023-01-08T08:50:34.721Z,60.45
2023-01-08T08:54:41.373Z,61.45
2023-01-08T08:58:46.281Z,60.50
2023-01-08T09:02:51.816Z,60.60
2023-01-08T09:06:54.851Z,61.10
2023-01-08T09:10:57.888Z,63.10
2023-01-08T09:15:02.265Z,60.55
2023-01-08T09:19:06.586Z,61.55
2023-01-08T09:23:10.443Z,60.80
2023-01-08T09:27:13.556Z,61.00
2023-01-08T09:31:17.952Z,60.70
2023-01-08T09:35:20.979Z,60.75
2023-01-08T09:39:24.027Z,61.65
2023-01-08T09:43:31.508Z,60.70
2023-01-08T09:47:40.037Z,60.65
2023-01-08T09:51:44.389Z,60.60
2023-01-08T09:56:08.595Z,60.75
2023-01-08T10:00:15.827Z,60.25
2023-01-08T10:04:22.908Z,61.07
2023-01-08T10:08:25.903Z,60.40
2023-01-08T10:12:30.929Z,61.60
2023-01-08T10:16:38.087Z,60.50
2023-01-08T10:20:42.457Z,62.10
2023-01-08T10:24:45.724Z,61.10
2023-01-08T10:28:48.672Z,59.75
2023-01-08T10:32:55.618Z,61.70
2023-01-08T10:37:00.033Z,60.13
2023-01-08T10:41:06.216Z,60.80
2023-01-08T10:45:18.448Z,61.30
2023-01-08T10:49:31.895Z,60.30
2023-01-08T10:53:36.248Z,61.03
2023-01-08T10:57:43.002Z,61.20
2023-01-08T11:01:48.687Z,60.75
2023-01-08T11:05:52.421Z,63.00
2023-01-08T12:06:52.212Z,7.30
2023-01-08T12:11:02.124Z,7.18
2023-01-08T12:15:11.899Z,7.45
2023-01-08T12:19:19.530Z,6.85
2023-01-08T12:23:30.322Z,6.03
2023-01-08T12:27:56.029Z,6.40
2023-01-08T12:32:10.612Z,7.10
2023-01-08T12:36:16.628Z,5.20
2023-01-08T12:40:24.108Z,6.90
2023-01-08T13:29:24.000Z,7.35
2023-01-08T13:33:39.681Z,6.65
2023-01-08T13:37:43.000Z,61.85
2023-01-08T13:41:47.525Z,62.57
2023-01-08T13:46:08.222Z,62.10
2023-01-08T13:50:20.659Z,60.70
2023-01-08T13:54:31.227Z,62.10
2023-01-08T13:58:37.321Z,61.77
2023-01-08T14:02:50.403Z,63.33
2023-01-08T14:06:53.675Z,63.60
2023-01-08T14:10:56.826Z,63.78
2023-01-08T14:15:00.498Z,62.17
2023-01-08T14:19:06.467Z,61.80
2023-01-08T14:23:13.123Z,62.35
2023-01-08T14:27:24.594Z,63.20
2023-01-08T14:31:28.869Z,61.70
2023-01-08T14:35:35.924Z,61.70
2023-01-08T14:39:39.304Z,61.30
2023-01-08T14:43:45.337Z,61.50
2023-01-08T14:47:50.332Z,61.75
2023-01-08T14:51:55.436Z,61.40
2023-01-08T14:55:58.914Z,62.30
2023-01-08T15:00:03.872Z,63.50
2023-01-08T15:04:10.518Z,62.30
2023-01-08T15:08:26.855Z,62.55
2023-01-08T15:12:32.400Z,64.90
2023-01-08T15:16:40.357Z,61.55
2023-01-08T15:20:46.164Z,64.20
2023-01-08T15:24:58.204Z,62.80
2023-01-08T15:29:02.858Z,62.80
2023-01-08T15:33:17.119Z,63.20
2023-01-08T15:37:20.414Z,63.60
2023-01-08T15:41:42.822Z,63.00
2023-01-08T15:45:47.727Z,62.10
2023-01-08T15:49:50.923Z,63.80
2023-01-08T15:53:54.238Z,63.45
2023-01-08T15:57:58.638Z,61.80
2023-01-08T16:02:02.001Z,61.33
2023-01-08T16:06:07.537Z,62.40
2023-01-08T16:10:11.400Z,62.95
2023-01-08T16:18:18.875Z,63.10
2023-01-08T16:22:21.833Z,63.40
2023-01-08T16:26:24.766Z,62.60
2023-01-08T16:30:29.121Z,63.30
2023-01-08T16:34:32.089Z,62.40
2023-01-08T16:38:35.773Z,62.70
2023-01-08T16:42:38.923Z,62.40
2023-01-08T16:46:43.237Z,62.50
2023-01-08T16:50:46.831Z,63.90
2023-01-08T16:54:49.908Z,62.23
2023-01-08T16:58:52.967Z,62.50
2023-01-08T17:02:57.350Z,62.40
2023-01-08T17:07:00.301Z,61.95
2023-01-08T17:11:08.272Z,62.20
2023-01-08T17:15:12.116Z,62.77
2023-01-08T17:19:17.475Z,61.70
2023-01-08T17:23:20.660Z,62.70
2023-01-08T17:27:23.727Z,62.58
2023-01-08T17:31:26.919Z,62.50
2023-01-08T17:35:31.422Z,61.60
2023-01-08T17:39:36.623Z,62.20
2023-01-08T17:43:40.380Z,61.10
2023-01-08T17:47:43.642Z,62.40
2023-01-08T17:51:47.973Z,61.65
2023-01-08T17:55:53.553Z,62.60
2023-01-08T18:03:59.387Z,62.00
2023-01-08T18:08:03.978Z,62.50
2023-01-08T18:16:12.662Z,62.40
2023-01-08T18:20:16.153Z,61.40
2023-01-08T18:24:20.614Z,61.90
2023-01-08T18:28:23.908Z,61.90
2023-01-08T18:52:42.632Z,60.20
2023-01-08T19:04:54.445Z,62.35
2023-01-08T19:08:58.601Z,62.20
2023-01-08T19:13:03.071Z,62.40
2023-01-08T19:17:06.845Z,62.05
2023-01-08T19:37:25.864Z,61.10
2023-01-08T19:45:50.460Z,61.80
2023-01-08T19:53:58.019Z,62.40
2023-01-08T20:22:23.247Z,63.80
2023-01-08T20:34:34.405Z,61.80
2023-01-08T20:46:44.686Z,64.20
2023-01-08T21:15:16.387Z,62.70
2023-01-08T21:43:59.416Z,62.30
2023-01-08T21:48:02.425Z,62.10
2023-01-08T21:52:23.985Z,62.85
2023-01-08T21:56:29.224Z,63.50
2023-01-08T22:08:38.526Z,63.80
2023-01-08T22:16:46.014Z,61.70
2023-01-08T22:20:49.044Z,67.60
2023-01-08T22:24:52.584Z,63.00
2023-01-08T22:41:11.447Z,63.20
2023-01-08T22:45:15.912Z,62.80
2023-01-08T22:49:19.199Z,63.30
2023-01-08T23:01:30.061Z,63.10
2023-01-08T23:05:33.503Z,64.05
2023-01-08T23:09:36.486Z,62.95
2023-01-08T23:13:40.228Z,61.70
2023-01-08T23:17:51.830Z,62.43
2023-01-08T23:21:55.634Z,60.70
2023-01-08T23:26:04.891Z,60.40
2023-01-08T23:30:08.656Z,61.70
2023-01-08T23:34:13.026Z,59.75
2023-01-08T23:38:16.191Z,61.80
2023-01-08T23:42:19.218Z,61.00
2023-01-08T23:46:22.208Z,61.00
2023-01-08T23:50:26.581Z,60.60
2023-01-08T23:54:29.621Z,59.65
2023-01-08T23:58:32.585Z,60.70
